sensor_id;sensor_type;location;lat;lon;timestamp;pressure;altitude;pressure_sealevel;temperature
41593;BMP180;28026;48.562;14.440;2023-04-12T00:00:28;93396.00;;;10.40
41593;BMP180;28026;48.562;14.440;2023-04-12T00:02:59;93391.00;;;10.40
41593;BMP180;28026;48.562;14.440;2023-04-12T00:05:32;93389.00;;;10.50
41593;BMP180;28026;48.562;14.440;2023-04-12T00:08:04;93385.00;;;10.50
41593;BMP180;28026;48.562;14.440;2023-04-12T00:10:35;93372.00;;;10.50
41593;BMP180;28026;48.562;14.440;2023-04-12T00:13:06;93378.00;;;10.50
41593;BMP180;28026;48.562;14.440;2023-04-12T00:15:37;93382.00;;;10.50
41593;BMP180;28026;48.562;14.440;2023-04-12T00:18:08;93374.00;;;10.50
41593;BMP180;28026;48.562;14.440;2023-04-12T00:20:39;93370.00;;;10.50
41593;BMP180;28026;48.562;14.440;2023-04-12T00:23:10;93362.00;;;10.50
41593;BMP180;28026;48.562;14.440;2023-04-12T00:25:42;93363.00;;;10.50
41593;BMP180;28026;48.562;14.440;2023-04-12T00:28:14;93364.00;;;10.40
41593;BMP180;28026;48.562;14.440;2023-04-12T00:30:47;93354.00;;;10.40
41593;BMP180;28026;48.562;14.440;2023-04-12T00:33:18;93357.00;;;10.50
41593;BMP180;28026;48.562;14.440;2023-04-12T00:35:49;93351.00;;;10.50
41593;BMP180;28026;48.562;14.440;2023-04-12T00:38:20;93345.00;;;10.50
41593;BMP180;28026;48.562;14.440;2023-04-12T00:40:51;93339.00;;;10.50
41593;BMP180;28026;48.562;14.440;2023-04-12T00:43:22;93341.00;;;10.50
41593;BMP180;28026;48.562;14.440;2023-04-12T00:45:57;93343.00;;;10.50
41593;BMP180;28026;48.562;14.440;2023-04-12T00:48:29;93345.00;;;10.50
41593;BMP180;28026;48.562;14.440;2023-04-12T00:51:01;93345.00;;;10.40
41593;BMP180;28026;48.562;14.440;2023-04-12T00:53:35;93346.00;;;10.30
41593;BMP180;28026;48.562;14.440;2023-04-12T00:56:07;93342.00;;;10.20
41593;BMP180;28026;48.562;14.440;2023-04-12T00:58:41;93346.00;;;10.10
41593;BMP180;28026;48.562;14.440;2023-04-12T01:01:12;93346.00;;;10.10
41593;BMP180;28026;48.562;14.440;2023-04-12T01:03:43;93337.00;;;10.00
41593;BMP180;28026;48.562;14.440;2023-04-12T01:06:37;93325.00;;;10.10
41593;BMP180;28026;48.562;14.440;2023-04-12T01:12:49;93334.00;;;10.10
41593;BMP180;28026;48.562;14.440;2023-04-12T01:16:37;93320.00;;;10.10
41593;BMP180;28026;48.562;14.440;2023-04-12T01:18:53;93318.00;;;10.10
41593;BMP180;28026;48.562;14.440;2023-04-12T01:21:52;93315.00;;;10.10
41593;BMP180;28026;48.562;14.440;2023-04-12T01:28:14;93308.00;;;10.10
41593;BMP180;28026;48.562;14.440;2023-04-12T01:30:53;93311.00;;;10.10
41593;BMP180;28026;48.562;14.440;2023-04-12T01:33:25;93304.00;;;10.10
41593;BMP180;28026;48.562;14.440;2023-04-12T01:36:15;93305.00;;;10.10
41593;BMP180;28026;48.562;14.440;2023-04-12T01:38:50;93296.00;;;10.10
41593;BMP180;28026;48.562;14.440;2023-04-12T01:41:22;93298.00;;;10.10
41593;BMP180;28026;48.562;14.440;2023-04-12T01:43:53;93298.00;;;10.10
41593;BMP180;28026;48.562;14.440;2023-04-12T01:46:24;93289.00;;;10.00
41593;BMP180;28026;48.562;14.440;2023-04-12T01:48:55;93285.00;;;10.00
41593;BMP180;28026;48.562;14.440;2023-04-12T01:54:37;93284.00;;;10.00
41593;BMP180;28026;48.562;14.440;2023-04-12T01:57:14;93277.00;;;10.00
41593;BMP180;28026;48.562;14.440;2023-04-12T01:59:46;93273.00;;;10.00
41593;BMP180;28026;48.562;14.440;2023-04-12T02:02:18;93259.00;;;9.90
41593;BMP180;28026;48.562;14.440;2023-04-12T02:04:51;93260.00;;;9.90
41593;BMP180;28026;48.562;14.440;2023-04-12T02:07:23;93270.00;;;9.90
41593;BMP180;28026;48.562;14.440;2023-04-12T02:09:54;93265.00;;;9.90
41593;BMP180;28026;48.562;14.440;2023-04-12T02:12:25;93260.00;;;9.90
41593;BMP180;28026;48.562;14.440;2023-04-12T02:14:56;93251.00;;;9.90
41593;BMP180;28026;48.562;14.440;2023-04-12T02:17:27;93251.00;;;9.90
41593;BMP180;28026;48.562;14.440;2023-04-12T02:19:59;93260.00;;;9.90
41593;BMP180;28026;48.562;14.440;2023-04-12T02:22:30;93252.00;;;9.80
41593;BMP180;28026;48.562;14.440;2023-04-12T02:25:02;93245.00;;;9.80
41593;BMP180;28026;48.562;14.440;2023-04-12T02:27:35;93253.00;;;9.70
41593;BMP180;28026;48.562;14.440;2023-04-12T02:30:07;93246.00;;;9.70
41593;BMP180;28026;48.562;14.440;2023-04-12T02:32:39;93227.00;;;9.70
41593;BMP180;28026;48.562;14.440;2023-04-12T02:35:14;93243.00;;;9.70
41593;BMP180;28026;48.562;14.440;2023-04-12T02:37:48;93231.00;;;9.70
41593;BMP180;28026;48.562;14.440;2023-04-12T02:40:19;93228.00;;;9.70
41593;BMP180;28026;48.562;14.440;2023-04-12T02:42:51;93222.00;;;9.70
41593;BMP180;28026;48.562;14.440;2023-04-12T02:45:22;93219.00;;;9.70
41593;BMP180;28026;48.562;14.440;2023-04-12T02:47:53;93228.00;;;9.70
41593;BMP180;28026;48.562;14.440;2023-04-12T02:50:24;93215.00;;;9.70
41593;BMP180;28026;48.562;14.440;2023-04-12T02:52:54;93214.00;;;9.60
41593;BMP180;28026;48.562;14.440;2023-04-12T02:55:25;93209.00;;;9.60
41593;BMP180;28026;48.562;14.440;2023-04-12T02:57:56;93218.00;;;9.60
41593;BMP180;28026;48.562;14.440;2023-04-12T03:00:27;93208.00;;;9.60
41593;BMP180;28026;48.562;14.440;2023-04-12T03:03:01;93209.00;;;9.60
41593;BMP180;28026;48.562;14.440;2023-04-12T03:05:33;93212.00;;;9.60
41593;BMP180;28026;48.562;14.440;2023-04-12T03:08:04;93203.00;;;9.60
41593;BMP180;28026;48.562;14.440;2023-04-12T03:10:35;93207.00;;;9.60
41593;BMP180;28026;48.562;14.440;2023-04-12T03:13:06;93202.00;;;9.50
41593;BMP180;28026;48.562;14.440;2023-04-12T03:15:37;93205.00;;;9.50
41593;BMP180;28026;48.562;14.440;2023-04-12T03:18:09;93197.00;;;9.50
41593;BMP180;28026;48.562;14.440;2023-04-12T03:20:40;93211.00;;;9.50
41593;BMP180;28026;48.562;14.440;2023-04-12T03:23:13;93209.00;;;9.50
41593;BMP180;28026;48.562;14.440;2023-04-12T03:25:44;93212.00;;;9.50
41593;BMP180;28026;48.562;14.440;2023-04-12T03:28:14;93202.00;;;9.50
41593;BMP180;28026;48.562;14.440;2023-04-12T03:30:45;93187.00;;;9.40
41593;BMP180;28026;48.562;14.440;2023-04-12T03:33:16;93188.00;;;9.40
41593;BMP180;28026;48.562;14.440;2023-04-12T03:35:47;93186.00;;;9.40
41593;BMP180;28026;48.562;14.440;2023-04-12T03:38:18;93180.00;;;9.40
41593;BMP180;28026;48.562;14.440;2023-04-12T03:40:49;93180.00;;;9.40
41593;BMP180;28026;48.562;14.440;2023-04-12T03:43:19;93177.00;;;9.40
41593;BMP180;28026;48.562;14.440;2023-04-12T03:45:51;93172.00;;;9.40
41593;BMP180;28026;48.562;14.440;2023-04-12T03:48:22;93169.00;;;9.40
41593;BMP180;28026;48.562;14.440;2023-04-12T03:50:53;93166.00;;;9.40
41593;BMP180;28026;48.562;14.440;2023-04-12T03:53:27;93167.00;;;9.40
41593;BMP180;28026;48.562;14.440;2023-04-12T03:56:00;93164.00;;;9.40
41593;BMP180;28026;48.562;14.440;2023-04-12T03:58:32;93153.00;;;9.40
41593;BMP180;28026;48.562;14.440;2023-04-12T04:01:06;93160.00;;;9.40
41593;BMP180;28026;48.562;14.440;2023-04-12T04:03:37;93158.00;;;9.40
41593;BMP180;28026;48.562;14.440;2023-04-12T04:06:08;93159.00;;;9.40
41593;BMP180;28026;48.562;14.440;2023-04-12T04:08:40;93163.00;;;9.30
41593;BMP180;28026;48.562;14.440;2023-04-12T04:11:12;93154.00;;;9.30
41593;BMP180;28026;48.562;14.440;2023-04-12T04:13:43;93138.00;;;9.30
41593;BMP180;28026;48.562;14.440;2023-04-12T04:16:16;93137.00;;;9.30
41593;BMP180;28026;48.562;14.440;2023-04-12T04:18:47;93141.00;;;9.30
41593;BMP180;28026;48.562;14.440;2023-04-12T04:21:18;93157.00;;;9.20
41593;BMP180;28026;48.562;14.440;2023-04-12T04:23:52;93157.00;;;9.20
41593;BMP180;28026;48.562;14.440;2023-04-12T04:26:23;93144.00;;;9.20
41593;BMP180;28026;48.562;14.440;2023-04-12T04:29:01;93146.00;;;9.20
41593;BMP180;28026;48.562;14.440;2023-04-12T04:31:33;93153.00;;;9.20
41593;BMP180;28026;48.562;14.440;2023-04-12T04:34:04;93141.00;;;9.10
41593;BMP180;28026;48.562;14.440;2023-04-12T04:36:36;93152.00;;;9.10
41593;BMP180;28026;48.562;14.440;2023-04-12T04:39:07;93162.00;;;9.00
41593;BMP180;28026;48.562;14.440;2023-04-12T04:41:39;93157.00;;;9.00
41593;BMP180;28026;48.562;14.440;2023-04-12T04:44:10;93165.00;;;9.00
41593;BMP180;28026;48.562;14.440;2023-04-12T04:46:42;93145.00;;;9.10
41593;BMP180;28026;48.562;14.440;2023-04-12T04:49:13;93165.00;;;9.10
41593;BMP180;28026;48.562;14.440;2023-04-12T04:51:44;93160.00;;;9.00
41593;BMP180;28026;48.562;14.440;2023-04-12T04:54:16;93147.00;;;9.10
41593;BMP180;28026;48.562;14.440;2023-04-12T04:56:47;93153.00;;;9.20
41593;BMP180;28026;48.562;14.440;2023-04-12T04:59:18;93153.00;;;9.20
41593;BMP180;28026;48.562;14.440;2023-04-12T05:01:50;93161.00;;;9.30
41593;BMP180;28026;48.562;14.440;2023-04-12T05:04:21;93151.00;;;9.30
41593;BMP180;28026;48.562;14.440;2023-04-12T05:06:52;93153.00;;;9.40
41593;BMP180;28026;48.562;14.440;2023-04-12T05:09:23;93144.00;;;9.40
41593;BMP180;28026;48.562;14.440;2023-04-12T05:11:54;93166.00;;;9.50
41593;BMP180;28026;48.562;14.440;2023-04-12T05:14:25;93171.00;;;9.60
41593;BMP180;28026;48.562;14.440;2023-04-12T05:16:56;93172.00;;;9.70
41593;BMP180;28026;48.562;14.440;2023-04-12T05:19:27;93162.00;;;9.70
41593;BMP180;28026;48.562;14.440;2023-04-12T05:21:58;93170.00;;;9.80
41593;BMP180;28026;48.562;14.440;2023-04-12T05:24:29;93162.00;;;9.90
41593;BMP180;28026;48.562;14.440;2023-04-12T05:27:00;93167.00;;;9.90
41593;BMP180;28026;48.562;14.440;2023-04-12T05:29:31;93160.00;;;10.00
41593;BMP180;28026;48.562;14.440;2023-04-12T05:32:02;93147.00;;;10.00
41593;BMP180;28026;48.562;14.440;2023-04-12T05:34:33;93165.00;;;10.10
41593;BMP180;28026;48.562;14.440;2023-04-12T05:37:04;93161.00;;;10.20
41593;BMP180;28026;48.562;14.440;2023-04-12T05:39:35;93160.00;;;10.30
41593;BMP180;28026;48.562;14.440;2023-04-12T05:42:06;93144.00;;;10.40
41593;BMP180;28026;48.562;14.440;2023-04-12T05:44:38;93151.00;;;10.60
41593;BMP180;28026;48.562;14.440;2023-04-12T05:47:09;93152.00;;;10.60
41593;BMP180;28026;48.562;14.440;2023-04-12T05:49:40;93139.00;;;10.80
41593;BMP180;28026;48.562;14.440;2023-04-12T05:52:10;93146.00;;;10.90
41593;BMP180;28026;48.562;14.440;2023-04-12T05:54:41;93132.00;;;11.00
41593;BMP180;28026;48.562;14.440;2023-04-12T05:57:12;93132.00;;;11.10
41593;BMP180;28026;48.562;14.440;2023-04-12T05:59:43;93130.00;;;11.20
41593;BMP180;28026;48.562;14.440;2023-04-12T06:02:14;93127.00;;;11.30
41593;BMP180;28026;48.562;14.440;2023-04-12T06:04:45;93127.00;;;11.30
41593;BMP180;28026;48.562;14.440;2023-04-12T06:07:16;93122.00;;;11.30
41593;BMP180;28026;48.562;14.440;2023-04-12T06:09:48;93123.00;;;11.40
41593;BMP180;28026;48.562;14.440;2023-04-12T06:12:19;93123.00;;;11.40
41593;BMP180;28026;48.562;14.440;2023-04-12T06:14:51;93126.00;;;11.50
41593;BMP180;28026;48.562;14.440;2023-04-12T06:17:22;93126.00;;;11.70
41593;BMP180;28026;48.562;14.440;2023-04-12T06:19:53;93114.00;;;11.80
41593;BMP180;28026;48.562;14.440;2023-04-12T06:22:24;93114.00;;;11.90
41593;BMP180;28026;48.562;14.440;2023-04-12T06:24:55;93111.00;;;12.00
41593;BMP180;28026;48.562;14.440;2023-04-12T06:27:25;93112.00;;;12.10
41593;BMP180;28026;48.562;14.440;2023-04-12T06:29:57;93105.00;;;12.20
41593;BMP180;28026;48.562;14.440;2023-04-12T06:32:28;93102.00;;;12.30
41593;BMP180;28026;48.562;14.440;2023-04-12T06:34:59;93093.00;;;12.40
41593;BMP180;28026;48.562;14.440;2023-04-12T06:37:29;93090.00;;;12.40
41593;BMP180;28026;48.562;14.440;2023-04-12T06:40:00;93096.00;;;12.50
41593;BMP180;28026;48.562;14.440;2023-04-12T06:42:31;93089.00;;;12.60
41593;BMP180;28026;48.562;14.440;2023-04-12T06:45:03;93096.00;;;12.70
41593;BMP180;28026;48.562;14.440;2023-04-12T06:47:34;93094.00;;;12.70
41593;BMP180;28026;48.562;14.440;2023-04-12T06:50:06;93089.00;;;12.90
41593;BMP180;28026;48.562;14.440;2023-04-12T06:52:37;93077.00;;;13.00
41593;BMP180;28026;48.562;14.440;2023-04-12T06:55:08;93075.00;;;13.00
41593;BMP180;28026;48.562;14.440;2023-04-12T06:57:43;93065.00;;;13.00
41593;BMP180;28026;48.562;14.440;2023-04-12T07:00:15;93071.00;;;13.10
41593;BMP180;28026;48.562;14.440;2023-04-12T07:02:46;93063.00;;;13.20
41593;BMP180;28026;48.562;14.440;2023-04-12T07:05:17;93064.00;;;13.30
41593;BMP180;28026;48.562;14.440;2023-04-12T07:07:48;93057.00;;;13.40
41593;BMP180;28026;48.562;14.440;2023-04-12T07:10:19;93053.00;;;13.60
41593;BMP180;28026;48.562;14.440;2023-04-12T07:12:50;93049.00;;;13.60
41593;BMP180;28026;48.562;14.440;2023-04-12T07:15:21;93041.00;;;13.70
41593;BMP180;28026;48.562;14.440;2023-04-12T07:17:52;93050.00;;;13.80
41593;BMP180;28026;48.562;14.440;2023-04-12T07:20:23;93049.00;;;13.90
41593;BMP180;28026;48.562;14.440;2023-04-12T07:22:53;93052.00;;;13.90
41593;BMP180;28026;48.562;14.440;2023-04-12T07:25:24;93046.00;;;13.90
41593;BMP180;28026;48.562;14.440;2023-04-12T07:27:55;93050.00;;;13.90
41593;BMP180;28026;48.562;14.440;2023-04-12T07:30:26;93052.00;;;13.90
41593;BMP180;28026;48.562;14.440;2023-04-12T07:32:57;93055.00;;;13.90
41593;BMP180;28026;48.562;14.440;2023-04-12T07:35:31;93049.00;;;14.00
41593;BMP180;28026;48.562;14.440;2023-04-12T07:38:02;93040.00;;;14.00
41593;BMP180;28026;48.562;14.440;2023-04-12T07:40:33;93032.00;;;14.10
41593;BMP180;28026;48.562;14.440;2023-04-12T07:43:04;93042.00;;;14.30
41593;BMP180;28026;48.562;14.440;2023-04-12T07:45:36;93043.00;;;14.50
41593;BMP180;28026;48.562;14.440;2023-04-12T07:48:07;93042.00;;;14.50
41593;BMP180;28026;48.562;14.440;2023-04-12T07:50:38;93036.00;;;14.60
41593;BMP180;28026;48.562;14.440;2023-04-12T07:53:27;93028.00;;;14.60
41593;BMP180;28026;48.562;14.440;2023-04-12T07:55:58;93024.00;;;14.60
41593;BMP180;28026;48.562;14.440;2023-04-12T07:58:30;93019.00;;;14.60
41593;BMP180;28026;48.562;14.440;2023-04-12T08:01:01;93022.00;;;14.70
41593;BMP180;28026;48.562;14.440;2023-04-12T08:03:32;93007.00;;;14.70
41593;BMP180;28026;48.562;14.440;2023-04-12T08:06:03;93003.00;;;14.90
41593;BMP180;28026;48.562;14.440;2023-04-12T08:08:35;93003.00;;;15.00
41593;BMP180;28026;48.562;14.440;2023-04-12T08:11:06;93006.00;;;15.00
41593;BMP180;28026;48.562;14.440;2023-04-12T08:13:37;93006.00;;;15.20
41593;BMP180;28026;48.562;14.440;2023-04-12T08:16:08;93001.00;;;15.40
41593;BMP180;28026;48.562;14.440;2023-04-12T08:18:38;92996.00;;;15.50
41593;BMP180;28026;48.562;14.440;2023-04-12T08:21:09;93001.00;;;15.60
41593;BMP180;28026;48.562;14.440;2023-04-12T08:23:41;92994.00;;;15.80
41593;BMP180;28026;48.562;14.440;2023-04-12T08:26:12;92986.00;;;16.00
41593;BMP180;28026;48.562;14.440;2023-04-12T08:28:42;92980.00;;;16.10
41593;BMP180;28026;48.562;14.440;2023-04-12T08:31:14;92987.00;;;16.30
41593;BMP180;28026;48.562;14.440;2023-04-12T08:33:46;92984.00;;;16.50
41593;BMP180;28026;48.562;14.440;2023-04-12T08:36:17;92976.00;;;16.70
41593;BMP180;28026;48.562;14.440;2023-04-12T08:38:48;92971.00;;;17.00
41593;BMP180;28026;48.562;14.440;2023-04-12T08:41:21;92982.00;;;16.90
41593;BMP180;28026;48.562;14.440;2023-04-12T08:43:54;92987.00;;;16.80
41593;BMP180;28026;48.562;14.440;2023-04-12T08:46:25;92984.00;;;16.90
41593;BMP180;28026;48.562;14.440;2023-04-12T08:48:57;92973.00;;;17.00
41593;BMP180;28026;48.562;14.440;2023-04-12T08:51:28;92967.00;;;17.00
41593;BMP180;28026;48.562;14.440;2023-04-12T08:54:03;92967.00;;;17.00
41593;BMP180;28026;48.562;14.440;2023-04-12T08:56:35;92970.00;;;17.20
41593;BMP180;28026;48.562;14.440;2023-04-12T08:59:06;92971.00;;;17.30
41593;BMP180;28026;48.562;14.440;2023-04-12T09:01:40;92963.00;;;17.40
41593;BMP180;28026;48.562;14.440;2023-04-12T09:04:11;92951.00;;;17.60
41593;BMP180;28026;48.562;14.440;2023-04-12T09:06:42;92960.00;;;17.60
41593;BMP180;28026;48.562;14.440;2023-04-12T09:09:13;92950.00;;;17.60
41593;BMP180;28026;48.562;14.440;2023-04-12T09:11:44;92946.00;;;17.40
41593;BMP180;28026;48.562;14.440;2023-04-12T09:14:25;92944.00;;;17.50
41593;BMP180;28026;48.562;14.440;2023-04-12T09:16:56;92942.00;;;17.50
41593;BMP180;28026;48.562;14.440;2023-04-12T09:19:35;92939.00;;;17.60
41593;BMP180;28026;48.562;14.440;2023-04-12T09:22:06;92945.00;;;17.70
41593;BMP180;28026;48.562;14.440;2023-04-12T09:24:48;92930.00;;;17.60
41593;BMP180;28026;48.562;14.440;2023-04-12T09:27:22;92929.00;;;17.50
41593;BMP180;28026;48.562;14.440;2023-04-12T09:30:08;92931.00;;;17.40
41593;BMP180;28026;48.562;14.440;2023-04-12T09:32:39;92923.00;;;17.50
41593;BMP180;28026;48.562;14.440;2023-04-12T09:35:10;92918.00;;;17.70
41593;BMP180;28026;48.562;14.440;2023-04-12T09:37:41;92906.00;;;17.90
41593;BMP180;28026;48.562;14.440;2023-04-12T09:40:13;92913.00;;;18.10
41593;BMP180;28026;48.562;14.440;2023-04-12T09:42:52;92907.00;;;18.30
41593;BMP180;28026;48.562;14.440;2023-04-12T09:45:24;92900.00;;;18.70
41593;BMP180;28026;48.562;14.440;2023-04-12T09:47:57;92907.00;;;18.90
41593;BMP180;28026;48.562;14.440;2023-04-12T09:50:29;92897.00;;;19.10
41593;BMP180;28026;48.562;14.440;2023-04-12T09:53:15;92886.00;;;19.30
41593;BMP180;28026;48.562;14.440;2023-04-12T09:55:48;92881.00;;;19.50
41593;BMP180;28026;48.562;14.440;2023-04-12T09:58:22;92884.00;;;19.50
41593;BMP180;28026;48.562;14.440;2023-04-12T10:00:55;92882.00;;;19.30
41593;BMP180;28026;48.562;14.440;2023-04-12T10:03:30;92872.00;;;19.20
41593;BMP180;28026;48.562;14.440;2023-04-12T10:06:03;92870.00;;;19.20
41593;BMP180;28026;48.562;14.440;2023-04-12T10:08:36;92871.00;;;19.00
41593;BMP180;28026;48.562;14.440;2023-04-12T10:11:08;92863.00;;;18.70
41593;BMP180;28026;48.562;14.440;2023-04-12T10:13:41;92857.00;;;18.30
41593;BMP180;28026;48.562;14.440;2023-04-12T10:16:14;92861.00;;;18.10
41593;BMP180;28026;48.562;14.440;2023-04-12T10:18:46;92855.00;;;18.10
41593;BMP180;28026;48.562;14.440;2023-04-12T10:21:20;92853.00;;;18.10
41593;BMP180;28026;48.562;14.440;2023-04-12T10:23:53;92847.00;;;18.20
41593;BMP180;28026;48.562;14.440;2023-04-12T10:26:24;92845.00;;;18.30
41593;BMP180;28026;48.562;14.440;2023-04-12T10:29:29;92834.00;;;18.40
41593;BMP180;28026;48.562;14.440;2023-04-12T10:32:24;92834.00;;;18.60
41593;BMP180;28026;48.562;14.440;2023-04-12T10:34:57;92840.00;;;18.80
41593;BMP180;28026;48.562;14.440;2023-04-12T10:38:03;92837.00;;;19.10
41593;BMP180;28026;48.562;14.440;2023-04-12T10:40:34;92827.00;;;19.20
41593;BMP180;28026;48.562;14.440;2023-04-12T10:43:25;92830.00;;;19.10
41593;BMP180;28026;48.562;14.440;2023-04-12T10:45:57;92827.00;;;19.10
41593;BMP180;28026;48.562;14.440;2023-04-12T10:48:37;92824.00;;;19.00
41593;BMP180;28026;48.562;14.440;2023-04-12T10:51:22;92816.00;;;19.30
41593;BMP180;28026;48.562;14.440;2023-04-12T10:56:46;92818.00;;;19.40
41593;BMP180;28026;48.562;14.440;2023-04-12T10:59:18;92821.00;;;19.30
41593;BMP180;28026;48.562;14.440;2023-04-12T11:02:15;92812.00;;;19.30
41593;BMP180;28026;48.562;14.440;2023-04-12T11:05:09;92798.00;;;19.40
41593;BMP180;28026;48.562;14.440;2023-04-12T11:07:44;92806.00;;;19.60
41593;BMP180;28026;48.562;14.440;2023-04-12T11:10:16;92793.00;;;19.40
41593;BMP180;28026;48.562;14.440;2023-04-12T11:12:54;92800.00;;;19.40
41593;BMP180;28026;48.562;14.440;2023-04-12T11:15:26;92801.00;;;19.40
41593;BMP180;28026;48.562;14.440;2023-04-12T11:17:57;92796.00;;;19.40
41593;BMP180;28026;48.562;14.440;2023-04-12T11:20:30;92801.00;;;19.20
41593;BMP180;28026;48.562;14.440;2023-04-12T11:23:04;92809.00;;;19.10
41593;BMP180;28026;48.562;14.440;2023-04-12T11:25:36;92796.00;;;19.10
41593;BMP180;28026;48.562;14.440;2023-04-12T11:28:07;92797.00;;;19.10
41593;BMP180;28026;48.562;14.440;2023-04-12T11:30:57;92796.00;;;19.10
41593;BMP180;28026;48.562;14.440;2023-04-12T11:33:36;92803.00;;;19.00
41593;BMP180;28026;48.562;14.440;2023-04-12T11:36:11;92802.00;;;18.80
41593;BMP180;28026;48.562;14.440;2023-04-12T11:38:43;92802.00;;;18.50
41593;BMP180;28026;48.562;14.440;2023-04-12T11:41:15;92787.00;;;18.30
41593;BMP180;28026;48.562;14.440;2023-04-12T11:43:48;92784.00;;;18.10
41593;BMP180;28026;48.562;14.440;2023-04-12T11:46:19;92790.00;;;18.10
41593;BMP180;28026;48.562;14.440;2023-04-12T11:48:50;92777.00;;;17.90
41593;BMP180;28026;48.562;14.440;2023-04-12T11:51:21;92774.00;;;17.90
41593;BMP180;28026;48.562;14.440;2023-04-12T11:53:58;92762.00;;;18.00
41593;BMP180;28026;48.562;14.440;2023-04-12T11:56:28;92766.00;;;18.10
41593;BMP180;28026;48.562;14.440;2023-04-12T11:59:01;92769.00;;;18.20
41593;BMP180;28026;48.562;14.440;2023-04-12T12:01:35;92766.00;;;18.00
41593;BMP180;28026;48.562;14.440;2023-04-12T12:04:07;92766.00;;;17.90
41593;BMP180;28026;48.562;14.440;2023-04-12T12:06:38;92772.00;;;18.00
41593;BMP180;28026;48.562;14.440;2023-04-12T12:09:10;92756.00;;;17.80
41593;BMP180;28026;48.562;14.440;2023-04-12T12:11:41;92755.00;;;17.50
41593;BMP180;28026;48.562;14.440;2023-04-12T12:14:18;92761.00;;;17.30
41593;BMP180;28026;48.562;14.440;2023-04-12T12:16:56;92762.00;;;17.40
41593;BMP180;28026;48.562;14.440;2023-04-12T12:19:36;92770.00;;;17.70
41593;BMP180;28026;48.562;14.440;2023-04-12T12:22:20;92741.00;;;17.80
41593;BMP180;28026;48.562;14.440;2023-04-12T12:24:56;92741.00;;;17.90
41593;BMP180;28026;48.562;14.440;2023-04-12T12:27:37;92737.00;;;17.90
41593;BMP180;28026;48.562;14.440;2023-04-12T12:30:11;92727.00;;;17.80
41593;BMP180;28026;48.562;14.440;2023-04-12T12:32:43;92722.00;;;17.70
41593;BMP180;28026;48.562;14.440;2023-04-12T12:35:14;92711.00;;;17.50
41593;BMP180;28026;48.562;14.440;2023-04-12T12:37:51;92710.00;;;17.50
41593;BMP180;28026;48.562;14.440;2023-04-12T12:40:29;92701.00;;;17.50
41593;BMP180;28026;48.562;14.440;2023-04-12T12:43:02;92698.00;;;17.60
41593;BMP180;28026;48.562;14.440;2023-04-12T12:45:33;92693.00;;;18.00
41593;BMP180;28026;48.562;14.440;2023-04-12T12:48:05;92694.00;;;18.40
41593;BMP180;28026;48.562;14.440;2023-04-12T12:50:36;92691.00;;;18.70
41593;BMP180;28026;48.562;14.440;2023-04-12T12:53:06;92693.00;;;19.10
41593;BMP180;28026;48.562;14.440;2023-04-12T12:55:38;92680.00;;;19.10
41593;BMP180;28026;48.562;14.440;2023-04-12T12:58:09;92671.00;;;19.10
41593;BMP180;28026;48.562;14.440;2023-04-12T13:00:40;92674.00;;;19.00
41593;BMP180;28026;48.562;14.440;2023-04-12T13:03:11;92666.00;;;18.90
41593;BMP180;28026;48.562;14.440;2023-04-12T13:05:42;92670.00;;;18.90
41593;BMP180;28026;48.562;14.440;2023-04-12T13:08:13;92664.00;;;18.80
41593;BMP180;28026;48.562;14.440;2023-04-12T13:10:44;92670.00;;;18.50
41593;BMP180;28026;48.562;14.440;2023-04-12T13:13:15;92678.00;;;18.30
41593;BMP180;28026;48.562;14.440;2023-04-12T13:15:46;92675.00;;;18.30
41593;BMP180;28026;48.562;14.440;2023-04-12T13:18:17;92679.00;;;18.20
41593;BMP180;28026;48.562;14.440;2023-04-12T13:20:49;92671.00;;;18.30
41593;BMP180;28026;48.562;14.440;2023-04-12T13:23:20;92663.00;;;18.20
41593;BMP180;28026;48.562;14.440;2023-04-12T13:25:51;92662.00;;;18.20
41593;BMP180;28026;48.562;14.440;2023-04-12T13:28:22;92655.00;;;18.30
41593;BMP180;28026;48.562;14.440;2023-04-12T13:30:53;92658.00;;;18.20
41593;BMP180;28026;48.562;14.440;2023-04-12T13:33:24;92655.00;;;18.20
41593;BMP180;28026;48.562;14.440;2023-04-12T13:35:55;92647.00;;;18.20
41593;BMP180;28026;48.562;14.440;2023-04-12T13:38:26;92628.00;;;18.20
41593;BMP180;28026;48.562;14.440;2023-04-12T13:40:57;92622.00;;;18.20
41593;BMP180;28026;48.562;14.440;2023-04-12T13:43:28;92635.00;;;18.10
41593;BMP180;28026;48.562;14.440;2023-04-12T13:45:59;92633.00;;;18.20
41593;BMP180;28026;48.562;14.440;2023-04-12T13:48:30;92624.00;;;18.10
41593;BMP180;28026;48.562;14.440;2023-04-12T13:51:00;92618.00;;;17.90
41593;BMP180;28026;48.562;14.440;2023-04-12T13:53:32;92621.00;;;17.70
41593;BMP180;28026;48.562;14.440;2023-04-12T13:56:03;92618.00;;;17.60
41593;BMP180;28026;48.562;14.440;2023-04-12T13:58:34;92622.00;;;17.50
41593;BMP180;28026;48.562;14.440;2023-04-12T14:01:06;92615.00;;;17.40
41593;BMP180;28026;48.562;14.440;2023-04-12T14:03:39;92614.00;;;17.30
41593;BMP180;28026;48.562;14.440;2023-04-12T14:06:10;92611.00;;;17.40
41593;BMP180;28026;48.562;14.440;2023-04-12T14:08:41;92614.00;;;17.40
41593;BMP180;28026;48.562;14.440;2023-04-12T14:11:11;92613.00;;;17.30
41593;BMP180;28026;48.562;14.440;2023-04-12T14:13:42;92615.00;;;17.30
41593;BMP180;28026;48.562;14.440;2023-04-12T14:16:13;92623.00;;;17.20
41593;BMP180;28026;48.562;14.440;2023-04-12T14:18:44;92612.00;;;17.20
41593;BMP180;28026;48.562;14.440;2023-04-12T14:21:15;92630.00;;;17.20
41593;BMP180;28026;48.562;14.440;2023-04-12T14:23:46;92627.00;;;17.10
41593;BMP180;28026;48.562;14.440;2023-04-12T14:26:17;92624.00;;;17.00
41593;BMP180;28026;48.562;14.440;2023-04-12T14:28:48;92624.00;;;16.90
41593;BMP180;28026;48.562;14.440;2023-04-12T14:31:19;92615.00;;;16.90
41593;BMP180;28026;48.562;14.440;2023-04-12T14:33:51;92623.00;;;17.00
41593;BMP180;28026;48.562;14.440;2023-04-12T14:36:23;92630.00;;;17.10
41593;BMP180;28026;48.562;14.440;2023-04-12T14:38:54;92629.00;;;17.10
41593;BMP180;28026;48.562;14.440;2023-04-12T14:41:25;92623.00;;;17.00
41593;BMP180;28026;48.562;14.440;2023-04-12T14:43:58;92623.00;;;17.00